createdAt,value
2018-10-05T00:01:46.069Z,97.88
2018-10-05T00:04:16.443Z,98.24
2018-10-05T00:06:46.995Z,97.55
2018-10-05T00:09:17.319Z,97.71
2018-10-05T00:11:47.929Z,97.72
2018-10-05T00:14:18.243Z,98.61
2018-10-05T00:16:48.651Z,98.84
2018-10-05T00:19:19.034Z,99.00
2018-10-05T00:21:49.299Z,99.28
2018-10-05T00:24:19.562Z,99.95
2018-10-05T00:26:49.879Z,99.78
2018-10-05T00:29:20.235Z,100.00
2018-10-05T00:31:57.014Z,99.88
2018-10-05T00:34:27.380Z,99.87
2018-10-05T00:36:57.658Z,99.32
2018-10-05T00:39:27.982Z,99.68
2018-10-05T00:41:58.320Z,100.00
2018-10-05T00:44:28.662Z,99.89
2018-10-05T00:46:59.048Z,100.00
2018-10-05T00:49:29.424Z,100.00
2018-10-05T00:51:59.854Z,100.00
2018-10-05T00:54:30.199Z,100.00
2018-10-05T00:57:00.497Z,100.00
2018-10-05T00:59:30.931Z,100.00
2018-10-05T01:02:01.239Z,100.00
2018-10-05T01:04:31.598Z,100.00
2018-10-05T01:07:02.038Z,100.00
2018-10-05T01:09:32.460Z,100.00
2018-10-05T01:12:02.808Z,100.00
2018-10-05T01:14:33.204Z,99.77
2018-10-05T01:17:03.493Z,100.00
2018-10-05T01:19:35.082Z,100.00
2018-10-05T01:22:05.758Z,100.00
2018-10-05T01:24:36.185Z,100.00
2018-10-05T01:27:06.546Z,100.00
2018-10-05T01:29:36.874Z,100.00
2018-10-05T01:32:07.372Z,100.00
2018-10-05T01:34:41.096Z,100.00
2018-10-05T01:37:11.428Z,100.00
2018-10-05T01:39:41.880Z,100.00
2018-10-05T01:42:12.192Z,100.00
2018-10-05T01:44:42.548Z,99.93
2018-10-05T01:47:12.878Z,99.76
2018-10-05T01:49:43.411Z,100.00
2018-10-05T01:52:16.020Z,99.22
2018-10-05T01:54:46.374Z,99.21
2018-10-05T01:57:16.658Z,99.97
2018-10-05T01:59:47.038Z,99.46
2018-10-05T02:02:17.383Z,99.74
2018-10-05T02:04:47.762Z,99.44
2018-10-05T02:07:18.201Z,100.00
2018-10-05T02:09:48.556Z,99.45
2018-10-05T02:12:18.874Z,100.00
2018-10-05T02:14:49.254Z,100.00
2018-10-05T02:17:19.607Z,100.00
2018-10-05T02:19:49.946Z,100.00
2018-10-05T02:22:20.238Z,100.00
2018-10-05T02:24:50.536Z,100.00
2018-10-05T02:27:20.880Z,100.00
2018-10-05T02:29:52.042Z,100.00
2018-10-05T02:32:22.348Z,100.00
2018-10-05T02:34:52.736Z,100.00
2018-10-05T02:37:23.501Z,99.90
2018-10-05T02:39:59.855Z,99.47
2018-10-05T02:42:30.217Z,99.79
2018-10-05T02:45:00.604Z,100.00
2018-10-05T02:47:30.899Z,100.00
2018-10-05T02:50:01.251Z,99.75
2018-10-05T02:52:31.719Z,100.00
2018-10-05T02:55:02.074Z,100.00
2018-10-05T02:57:32.405Z,100.00
2018-10-05T03:00:02.698Z,99.75
2018-10-05T03:02:34.256Z,100.00
2018-10-05T03:05:04.609Z,100.00
2018-10-05T03:07:35.069Z,100.00
2018-10-05T03:10:05.413Z,100.00
2018-10-05T03:12:35.761Z,100.00
2018-10-05T03:15:06.235Z,100.00
2018-10-05T03:17:36.533Z,100.00
2018-10-05T03:20:06.909Z,100.00
2018-10-05T03:22:37.238Z,100.00
2018-10-05T03:25:07.611Z,100.00
2018-10-05T03:27:38.041Z,100.00
2018-10-05T03:30:08.763Z,100.00
2018-10-05T03:32:39.151Z,100.00
2018-10-05T03:35:09.441Z,100.00
2018-10-05T03:37:39.747Z,100.00
2018-10-05T03:40:10.115Z,100.00
2018-10-05T03:42:40.696Z,100.00
2018-10-05T03:45:11.023Z,100.00
2018-10-05T03:47:41.468Z,100.00
2018-10-05T03:50:11.795Z,100.00
2018-10-05T03:52:42.275Z,100.00
2018-10-05T03:55:12.582Z,100.00
2018-10-05T03:57:43.010Z,100.00
2018-10-05T04:00:13.325Z,100.00
2018-10-05T04:02:43.634Z,100.00
2018-10-05T04:05:13.982Z,100.00
2018-10-05T04:07:44.299Z,100.00
2018-10-05T04:10:14.698Z,100.00
2018-10-05T04:12:44.942Z,100.00
2018-10-05T04:15:15.316Z,100.00
2018-10-05T04:17:45.662Z,100.00
2018-10-05T04:20:16.128Z,100.00
2018-10-05T04:22:46.615Z,100.00
2018-10-05T04:25:17.130Z,100.00
2018-10-05T04:27:47.512Z,100.00
2018-10-05T04:30:17.925Z,100.00
2018-10-05T04:32:48.220Z,100.00
2018-10-05T04:35:18.608Z,100.00
2018-10-05T04:37:48.914Z,100.00
2018-10-05T04:40:19.289Z,100.00
2018-10-05T04:42:49.709Z,100.00
2018-10-05T04:45:20.222Z,100.00
2018-10-05T04:47:50.549Z,100.00
2018-10-05T04:50:20.913Z,100.00
2018-10-05T04:52:51.339Z,100.00
2018-10-05T04:55:21.699Z,100.00
2018-10-05T04:57:52.038Z,100.00
2018-10-05T05:00:22.394Z,100.00
2018-10-05T05:02:55.594Z,100.00
2018-10-05T05:05:26.176Z,100.00
2018-10-05T05:07:56.483Z,100.00
2018-10-05T05:10:26.978Z,100.00
2018-10-05T05:12:57.395Z,100.00
2018-10-05T05:15:27.793Z,100.00
2018-10-05T05:17:58.185Z,100.00
2018-10-05T05:20:28.540Z,100.00
2018-10-05T05:22:58.815Z,100.00
2018-10-05T05:25:29.296Z,100.00
2018-10-05T05:27:59.666Z,100.00
2018-10-05T05:30:30.028Z,100.00
2018-10-05T05:33:00.396Z,100.00
2018-10-05T05:35:30.772Z,100.00
2018-10-05T05:38:01.141Z,100.00
2018-10-05T05:40:31.504Z,100.00
2018-10-05T05:43:01.794Z,100.00
2018-10-05T05:45:32.226Z,100.00
2018-10-05T05:48:02.614Z,100.00
2018-10-05T05:50:33.030Z,100.00
2018-10-05T05:53:03.316Z,100.00
2018-10-05T05:55:33.664Z,100.00
2018-10-05T05:58:03.997Z,100.00
2018-10-05T06:00:34.312Z,100.00
2018-10-05T06:03:04.612Z,100.00
2018-10-05T06:05:34.916Z,100.00
2018-10-05T06:08:05.252Z,99.84
2018-10-05T06:10:35.685Z,99.40
2018-10-05T06:13:06.095Z,97.83
2018-10-05T06:15:36.484Z,97.64
2018-10-05T06:18:06.822Z,96.29
2018-10-05T06:20:37.082Z,95.38
2018-10-05T06:23:07.461Z,94.04
2018-10-05T06:25:37.986Z,93.99
2018-10-05T06:28:08.514Z,92.53
2018-10-05T06:30:38.866Z,91.72
2018-10-05T06:33:09.182Z,90.88
2018-10-05T06:35:39.488Z,90.56
2018-10-05T06:38:09.787Z,89.92
2018-10-05T06:40:40.184Z,89.04
2018-10-05T06:43:10.444Z,87.20
2018-10-05T06:45:40.872Z,85.52
2018-10-05T06:48:11.239Z,85.24
2018-10-05T06:50:41.631Z,84.97
2018-10-05T06:53:11.996Z,84.13
2018-10-05T06:55:42.370Z,82.24
2018-10-05T06:58:12.665Z,82.03
2018-10-05T07:00:43.119Z,81.02
2018-10-05T07:03:13.442Z,79.61
2018-10-05T07:05:43.811Z,77.95
2018-10-05T07:08:14.142Z,76.54
2018-10-05T07:10:44.443Z,76.23
2018-10-05T07:13:14.743Z,75.52
2018-10-05T07:15:45.114Z,75.87
2018-10-05T07:18:15.381Z,74.46
2018-10-05T07:20:45.739Z,74.04
2018-10-05T07:23:15.995Z,73.17
2018-10-05T07:25:46.319Z,71.93
2018-10-05T07:28:16.792Z,70.89
2018-10-05T07:30:47.010Z,69.37
2018-10-05T07:33:17.374Z,67.87
2018-10-05T07:35:47.677Z,68.30
2018-10-05T07:38:22.065Z,67.85
2018-10-05T07:40:56.235Z,67.98
2018-10-05T07:43:26.557Z,67.39
2018-10-05T07:45:56.903Z,67.11
2018-10-05T07:48:27.231Z,65.49
2018-10-05T07:50:57.607Z,64.84
2018-10-05T07:53:27.861Z,64.10
2018-10-05T07:55:58.205Z,62.61
2018-10-05T07:58:28.963Z,61.68
2018-10-05T08:00:59.329Z,60.94
2018-10-05T08:03:29.645Z,60.98
2018-10-05T08:06:00.197Z,59.63
2018-10-05T08:08:30.439Z,57.37
2018-10-05T08:11:00.754Z,59.22
2018-10-05T08:13:31.064Z,58.31
2018-10-05T08:16:01.497Z,56.99
2018-10-05T08:18:31.753Z,56.12
2018-10-05T08:21:02.082Z,56.37
2018-10-05T08:23:32.521Z,57.54
2018-10-05T08:26:02.924Z,56.33
2018-10-05T08:28:39.047Z,56.72
2018-10-05T08:31:09.341Z,54.06
2018-10-05T08:33:39.648Z,53.38
2018-10-05T08:36:11.729Z,51.72
2018-10-05T08:38:42.168Z,51.54
2018-10-05T08:41:12.444Z,51.72
2018-10-05T08:43:42.794Z,49.38
2018-10-05T08:46:13.103Z,50.45
2018-10-05T08:48:43.420Z,50.35
2018-10-05T08:51:13.673Z,49.63
2018-10-05T08:53:43.999Z,49.96
2018-10-05T08:56:14.395Z,50.01
2018-10-05T08:58:44.809Z,49.33
2018-10-05T09:01:15.167Z,48.90
2018-10-05T09:03:45.538Z,48.05
2018-10-05T09:06:15.838Z,45.15
2018-10-05T09:08:46.246Z,45.83
2018-10-05T09:11:16.669Z,45.63
2018-10-05T09:13:47.249Z,46.04
2018-10-05T09:16:17.586Z,47.10
2018-10-05T09:18:47.820Z,45.02
2018-10-05T09:21:18.182Z,44.42
2018-10-05T09:23:48.769Z,42.75
2018-10-05T09:26:19.038Z,42.10
2018-10-05T09:28:49.418Z,40.56
2018-10-05T09:31:19.676Z,40.40
2018-10-05T09:33:50.318Z,41.22
2018-10-05T09:36:20.796Z,40.38
2018-10-05T09:38:51.016Z,40.02
2018-10-05T09:41:21.330Z,40.61
2018-10-05T09:43:51.722Z,40.45
2018-10-05T09:46:22.024Z,40.84
2018-10-05T09:48:52.313Z,40.58
2018-10-05T09:51:22.580Z,40.08
2018-10-05T09:53:53.175Z,38.55
2018-10-05T09:56:23.439Z,38.41
2018-10-05T09:58:53.785Z,37.04
2018-10-05T10:01:29.281Z,37.19
2018-10-05T10:03:59.607Z,38.13
2018-10-05T10:06:29.998Z,38.68
2018-10-05T10:09:00.264Z,39.84
2018-10-05T10:11:30.558Z,39.46
2018-10-05T10:14:00.971Z,38.94
2018-10-05T10:16:31.512Z,39.96
2018-10-05T10:19:01.928Z,38.16
2018-10-05T10:21:32.540Z,38.04
2018-10-05T10:24:02.836Z,38.66
2018-10-05T10:26:33.185Z,38.69
2018-10-05T10:29:03.563Z,37.65
2018-10-05T10:31:33.920Z,34.89
2018-10-05T10:34:04.178Z,33.80
2018-10-05T10:36:34.835Z,34.32
2018-10-05T10:39:06.597Z,35.30
2018-10-05T10:41:37.390Z,36.13
2018-10-05T10:44:07.811Z,34.94
2018-10-05T10:46:38.102Z,34.17
2018-10-05T10:49:08.588Z,34.71
2018-10-05T10:51:38.959Z,34.24
2018-10-05T10:54:09.320Z,34.61
2018-10-05T10:56:39.674Z,34.66
2018-10-05T10:59:10.055Z,32.44
2018-10-05T11:01:40.502Z,31.93
2018-10-05T11:04:10.894Z,33.00
2018-10-05T11:06:41.348Z,33.19
2018-10-05T11:09:11.698Z,33.21
2018-10-05T11:11:42.112Z,32.74
2018-10-05T11:14:12.490Z,33.63
2018-10-05T11:16:42.918Z,32.46
2018-10-05T11:19:13.332Z,32.13
2018-10-05T11:21:43.822Z,32.71
2018-10-05T11:24:14.149Z,32.66
2018-10-05T11:26:44.582Z,32.70
2018-10-05T11:29:15.032Z,32.10
2018-10-05T11:31:45.390Z,32.74
2018-10-05T11:34:15.730Z,32.73
2018-10-05T11:36:46.164Z,32.53
2018-10-05T11:39:16.525Z,32.67
2018-10-05T11:41:46.923Z,33.11
2018-10-05T11:44:17.297Z,32.28
2018-10-05T11:46:47.676Z,31.67
2018-10-05T11:49:18.121Z,31.36
2018-10-05T11:51:48.575Z,30.80
2018-10-05T11:54:18.956Z,30.46
2018-10-05T11:56:49.406Z,29.92
2018-10-05T11:59:19.756Z,29.84
2018-10-05T12:01:50.159Z,29.07
2018-10-05T12:04:20.529Z,29.11
2018-10-05T12:06:50.975Z,29.51
2018-10-05T12:09:21.671Z,29.57
2018-10-05T12:11:52.123Z,28.65
2018-10-05T12:14:22.558Z,30.00
2018-10-05T12:16:53.024Z,29.23
2018-10-05T12:19:23.407Z,29.80
2018-10-05T12:21:53.793Z,29.30
2018-10-05T12:24:24.191Z,28.83
2018-10-05T12:26:56.952Z,28.85
2018-10-05T12:29:27.432Z,27.87
2018-10-05T12:32:00.505Z,29.95
2018-10-05T12:34:30.845Z,29.80
2018-10-05T12:37:01.330Z,29.79
2018-10-05T12:39:31.695Z,27.60
2018-10-05T12:42:02.436Z,27.37
2018-10-05T12:44:32.789Z,27.96
2018-10-05T12:47:03.199Z,28.26
2018-10-05T12:49:33.549Z,26.29
2018-10-05T12:52:04.081Z,25.36
2018-10-05T12:54:34.587Z,25.71
2018-10-05T12:57:04.989Z,26.27
2018-10-05T12:59:35.343Z,26.94
2018-10-05T13:02:05.679Z,26.16
2018-10-05T13:04:36.051Z,26.42
2018-10-05T13:07:06.488Z,27.62
2018-10-05T13:09:36.928Z,27.59
2018-10-05T13:12:07.499Z,27.23
2018-10-05T13:14:37.853Z,27.93
2018-10-05T13:17:08.269Z,26.84
2018-10-05T13:19:38.648Z,27.14
2018-10-05T13:22:09.172Z,26.48
2018-10-05T13:24:39.592Z,26.48
2018-10-05T13:27:09.973Z,26.62
2018-10-05T13:29:40.321Z,27.36
2018-10-05T13:32:10.643Z,27.50
2018-10-05T13:34:41.189Z,28.39
2018-10-05T13:37:11.544Z,28.23
2018-10-05T13:39:41.997Z,28.77
2018-10-05T13:42:12.627Z,28.43
2018-10-05T13:44:43.085Z,27.56
2018-10-05T13:47:13.491Z,27.29
2018-10-05T13:49:43.961Z,27.78
2018-10-05T13:52:14.395Z,27.95
2018-10-05T13:54:45.136Z,27.83
2018-10-05T13:57:15.586Z,27.77
2018-10-05T13:59:46.277Z,27.40
2018-10-05T14:02:16.736Z,28.09
2018-10-05T14:04:47.258Z,27.41
2018-10-05T14:07:17.764Z,25.71
2018-10-05T14:09:48.448Z,26.13
2018-10-05T14:12:18.828Z,26.86
2018-10-05T14:14:49.174Z,27.29
2018-10-05T14:17:19.601Z,26.95
2018-10-05T14:19:49.912Z,27.61
2018-10-05T14:22:20.359Z,28.14
2018-10-05T14:24:50.720Z,28.23
2018-10-05T14:27:21.122Z,28.07
2018-10-05T14:29:51.457Z,28.46
2018-10-05T14:32:21.808Z,28.20
2018-10-05T14:34:52.240Z,28.57
2018-10-05T14:37:22.748Z,28.09
2018-10-05T14:39:53.122Z,27.58
2018-10-05T14:42:23.500Z,28.06
2018-10-05T14:44:53.975Z,27.63
2018-10-05T14:47:25.704Z,27.00
2018-10-05T14:49:56.178Z,24.85
2018-10-05T14:52:27.224Z,26.08
2018-10-05T14:54:57.773Z,26.31
2018-10-05T14:57:28.250Z,25.69
2018-10-05T14:59:58.689Z,26.24
2018-10-05T15:02:29.382Z,24.89
2018-10-05T15:04:59.952Z,24.86
2018-10-05T15:07:30.505Z,26.55
2018-10-05T15:10:01.008Z,26.95
2018-10-05T15:12:31.508Z,24.93
2018-10-05T15:15:01.958Z,26.43
2018-10-05T15:17:32.452Z,28.95
2018-10-05T15:20:03.068Z,28.64
2018-10-05T15:22:33.485Z,29.04
2018-10-05T15:25:05.714Z,30.45
2018-10-05T15:27:37.265Z,29.94
2018-10-05T15:30:10.455Z,31.15
2018-10-05T15:32:40.945Z,31.72
2018-10-05T15:35:11.437Z,31.87
2018-10-05T15:37:41.741Z,32.36
2018-10-05T15:40:12.248Z,32.74
2018-10-05T15:42:43.309Z,32.82
2018-10-05T15:45:13.743Z,33.07
2018-10-05T15:47:50.262Z,33.48
2018-10-05T15:50:20.655Z,33.87
2018-10-05T15:52:51.109Z,34.75
2018-10-05T15:55:21.526Z,34.99
2018-10-05T15:57:51.846Z,35.21
2018-10-05T16:00:22.152Z,35.54
2018-10-05T16:02:52.578Z,36.19
2018-10-05T16:05:22.984Z,36.11
2018-10-05T16:07:53.261Z,37.04
2018-10-05T16:10:23.675Z,37.52
2018-10-05T16:12:54.167Z,37.09
2018-10-05T16:15:24.482Z,37.30
2018-10-05T16:17:54.796Z,38.41
2018-10-05T16:20:25.351Z,38.45
2018-10-05T16:22:55.642Z,38.90
2018-10-05T16:25:25.986Z,39.52
2018-10-05T16:27:56.312Z,39.79
2018-10-05T16:30:26.631Z,40.14
2018-10-05T16:32:56.942Z,40.63
2018-10-05T16:35:27.312Z,41.46
2018-10-05T16:37:57.595Z,42.17
2018-10-05T16:40:27.978Z,42.88
2018-10-05T16:42:58.356Z,44.50
2018-10-05T16:45:28.738Z,44.85
2018-10-05T16:47:59.172Z,45.43
2018-10-05T16:50:29.578Z,46.61
2018-10-05T16:52:59.864Z,47.03
2018-10-05T16:55:30.235Z,48.17
2018-10-05T16:58:00.605Z,48.97
2018-10-05T17:00:30.965Z,49.23
2018-10-05T17:03:01.247Z,49.06
2018-10-05T17:05:31.739Z,49.77
2018-10-05T17:08:06.047Z,49.62
2018-10-05T17:10:36.489Z,49.71
2018-10-05T17:13:07.031Z,50.12
2018-10-05T17:15:37.310Z,50.49
2018-10-05T17:18:07.695Z,51.50
2018-10-05T17:20:38.141Z,52.43
2018-10-05T17:23:08.640Z,51.98
2018-10-05T17:25:38.950Z,52.09
2018-10-05T17:28:09.259Z,52.49
2018-10-05T17:30:39.967Z,52.56
2018-10-05T17:33:10.383Z,52.40
2018-10-05T17:35:40.818Z,52.67
2018-10-05T17:38:11.281Z,53.24
2018-10-05T17:40:41.733Z,53.35
2018-10-05T17:43:12.085Z,54.68
2018-10-05T17:45:42.513Z,54.41
2018-10-05T17:48:12.987Z,54.80
2018-10-05T17:50:43.650Z,54.95
2018-10-05T17:53:14.008Z,55.27
2018-10-05T17:55:44.571Z,56.43
2018-10-05T17:58:14.903Z,56.48
2018-10-05T18:00:45.526Z,56.76
2018-10-05T18:03:15.817Z,57.35
2018-10-05T18:05:46.266Z,57.58
2018-10-05T18:08:16.568Z,58.52
2018-10-05T18:10:46.966Z,58.75
2018-10-05T18:13:17.412Z,58.84
2018-10-05T18:15:47.822Z,57.84
2018-10-05T18:18:18.140Z,57.80
2018-10-05T18:20:48.518Z,57.50
2018-10-05T18:23:18.844Z,58.14
2018-10-05T18:25:49.203Z,57.43
2018-10-05T18:28:19.606Z,58.62
2018-10-05T18:30:49.968Z,58.71
2018-10-05T18:33:20.416Z,59.48
2018-10-05T18:35:50.776Z,59.35
2018-10-05T18:38:21.142Z,59.62
2018-10-05T18:40:51.471Z,60.00
2018-10-05T18:43:21.795Z,59.63
2018-10-05T18:45:52.238Z,60.15
2018-10-05T18:48:22.636Z,61.11
2018-10-05T18:50:54.343Z,60.88
2018-10-05T18:53:24.792Z,61.96
2018-10-05T18:56:00.315Z,62.07
2018-10-05T18:58:33.184Z,62.60
2018-10-05T19:01:03.538Z,61.92
2018-10-05T19:03:35.653Z,63.73
2018-10-05T19:06:08.882Z,64.06
2018-10-05T19:08:43.079Z,64.66
2018-10-05T19:11:13.510Z,64.77
2018-10-05T19:13:44.016Z,65.44
2018-10-05T19:16:14.536Z,65.76
2018-10-05T19:18:45.053Z,65.88
2018-10-05T19:21:17.343Z,66.23
2018-10-05T19:23:54.196Z,66.73
2018-10-05T19:26:24.732Z,66.99
2018-10-05T19:28:55.542Z,66.95
2018-10-05T19:31:28.538Z,68.25
2018-10-05T19:34:00.554Z,68.82
2018-10-05T19:36:30.915Z,69.03
2018-10-05T19:39:01.332Z,68.46
2018-10-05T19:41:33.528Z,68.81
2018-10-05T19:44:04.517Z,69.74
2018-10-05T19:46:34.876Z,70.98
2018-10-05T19:49:05.306Z,71.40
2018-10-05T19:51:36.969Z,72.67
2018-10-05T19:54:07.339Z,72.23
2018-10-05T19:56:38.025Z,73.11
2018-10-05T19:59:09.355Z,74.11
2018-10-05T20:01:39.848Z,73.74
2018-10-05T20:04:10.232Z,74.00
2018-10-05T20:06:40.609Z,74.23
2018-10-05T20:09:11.102Z,73.52
2018-10-05T20:11:41.534Z,73.29
2018-10-05T20:14:11.932Z,72.72
2018-10-05T20:16:46.135Z,72.22
2018-10-05T20:19:16.565Z,72.96
2018-10-05T20:21:46.953Z,73.14
2018-10-05T20:24:17.391Z,73.29
2018-10-05T20:26:47.608Z,73.06
2018-10-05T20:29:20.970Z,72.94
2018-10-05T20:31:51.396Z,73.86
2018-10-05T20:34:21.938Z,74.64
2018-10-05T20:36:53.419Z,74.72
2018-10-05T20:39:24.787Z,75.62
2018-10-05T20:41:55.506Z,76.12
2018-10-05T20:44:26.320Z,75.69
2018-10-05T20:49:51.205Z,76.47
2018-10-05T20:52:21.474Z,77.44
2018-10-05T20:54:51.817Z,78.47
2018-10-05T20:57:22.706Z,77.83
2018-10-05T20:59:53.216Z,77.20
2018-10-05T21:02:24.242Z,77.08
2018-10-05T21:04:54.593Z,77.86
2018-10-05T21:07:25.204Z,79.02
2018-10-05T21:09:55.525Z,79.57
2018-10-05T21:12:25.792Z,79.74
2018-10-05T21:14:56.242Z,80.34
2018-10-05T21:17:27.120Z,80.95
2018-10-05T21:20:01.234Z,80.80
2018-10-05T21:22:31.631Z,81.26
2018-10-05T21:25:02.845Z,81.93
2018-10-05T21:27:33.965Z,82.39
2018-10-05T21:30:04.402Z,82.69
2018-10-05T21:32:34.715Z,82.66
2018-10-05T21:35:05.358Z,83.15
2018-10-05T21:37:35.737Z,83.71
2018-10-05T21:42:50.408Z,84.05
2018-10-05T21:45:24.133Z,83.98
2018-10-05T21:47:54.959Z,83.08
2018-10-05T21:50:27.915Z,82.62
2018-10-05T21:53:00.926Z,84.32
2018-10-05T21:55:32.417Z,85.31
2018-10-05T21:58:09.494Z,85.03
2018-10-05T22:00:40.285Z,84.32
2018-10-05T22:03:11.535Z,84.26
2018-10-05T22:05:42.247Z,84.71
2018-10-05T22:08:12.679Z,85.41
2018-10-05T22:10:43.312Z,85.93
2018-10-05T22:13:14.107Z,86.12
2018-10-05T22:15:44.738Z,85.78
2018-10-05T22:18:15.343Z,85.55
2018-10-05T22:20:46.111Z,86.40
2018-10-05T22:23:16.679Z,86.15
2018-10-05T22:25:47.233Z,86.32
2018-10-05T22:28:17.749Z,86.36
2018-10-05T22:30:48.235Z,86.41
2018-10-05T22:33:18.760Z,86.14
2018-10-05T22:35:49.340Z,86.05
2018-10-05T22:38:19.980Z,87.08
2018-10-05T22:40:50.628Z,86.87
2018-10-05T22:43:21.255Z,86.97
2018-10-05T22:45:51.870Z,87.19
2018-10-05T22:48:22.447Z,87.76
2018-10-05T22:50:53.185Z,86.74
2018-10-05T22:53:23.845Z,87.41
2018-10-05T22:55:54.345Z,87.58
2018-10-05T22:58:25.112Z,87.92
2018-10-05T23:00:55.844Z,87.10
2018-10-05T23:03:26.348Z,87.98
2018-10-05T23:05:56.998Z,88.22
2018-10-05T23:08:27.796Z,88.85
2018-10-05T23:10:58.324Z,89.33
2018-10-05T23:13:28.796Z,88.56
2018-10-05T23:15:59.205Z,89.96
2018-10-05T23:18:29.984Z,89.95
2018-10-05T23:21:00.830Z,90.40
2018-10-05T23:23:31.316Z,89.69
2018-10-05T23:26:01.886Z,89.09
2018-10-05T23:28:32.584Z,89.55
2018-10-05T23:31:03.109Z,88.62
2018-10-05T23:33:33.682Z,89.41
2018-10-05T23:36:04.356Z,89.93
2018-10-05T23:38:35.008Z,89.62
2018-10-05T23:41:05.737Z,91.00
2018-10-05T23:43:36.311Z,90.54
2018-10-05T23:46:07.358Z,90.98
2018-10-05T23:48:38.342Z,91.22
2018-10-05T23:51:08.844Z,91.48
2018-10-05T23:53:39.512Z,90.38
2018-10-05T23:56:09.909Z,91.30
2018-10-05T23:58:40.493Z,92.27
